sensor_id;sensor_type;location;lat;lon;timestamp;P1;durP1;ratioP1;P2;durP2;ratioP2
63282;SDS011;49407;51.388;0.048;2022-09-20T00:00:33;9.10;;;8.60;;
63282;SDS011;49407;51.388;0.048;2022-09-20T00:05:47;7.78;;;7.47;;
63282;SDS011;49407;51.388;0.048;2022-09-20T00:08:17;8.50;;;8.10;;
63282;SDS011;49407;51.388;0.048;2022-09-20T00:10:47;8.95;;;8.45;;
63282;SDS011;49407;51.388;0.048;2022-09-20T00:13:18;8.55;;;8.10;;
63282;SDS011;49407;51.388;0.048;2022-09-20T00:15:45;8.57;;;8.13;;
63282;SDS011;49407;51.388;0.048;2022-09-20T00:18:12;8.27;;;7.88;;
63282;SDS011;49407;51.388;0.048;2022-09-20T00:20:44;8.27;;;7.82;;
63282;SDS011;49407;51.388;0.048;2022-09-20T00:23:19;9.20;;;8.70;;
63282;SDS011;49407;51.388;0.048;2022-09-20T00:25:53;8.18;;;7.68;;
63282;SDS011;49407;51.388;0.048;2022-09-20T00:28:24;8.52;;;8.00;;
63282;SDS011;49407;51.388;0.048;2022-09-20T00:30:54;8.98;;;8.48;;
63282;SDS011;49407;51.388;0.048;2022-09-20T00:36:50;8.57;;;8.18;;
63282;SDS011;49407;51.388;0.048;2022-09-20T00:39:17;8.55;;;8.07;;
63282;SDS011;49407;51.388;0.048;2022-09-20T00:41:44;8.27;;;7.72;;
63282;SDS011;49407;51.388;0.048;2022-09-20T00:47:26;7.80;;;7.40;;
63282;SDS011;49407;51.388;0.048;2022-09-20T00:56:01;8.23;;;7.82;;
63282;SDS011;49407;51.388;0.048;2022-09-20T00:58:34;8.35;;;7.95;;
63282;SDS011;49407;51.388;0.048;2022-09-20T01:01:07;8.48;;;8.02;;
63282;SDS011;49407;51.388;0.048;2022-09-20T01:03:38;8.32;;;7.78;;
63282;SDS011;49407;51.388;0.048;2022-09-20T01:06:09;7.32;;;7.03;;
63282;SDS011;49407;51.388;0.048;2022-09-20T01:08:39;8.25;;;7.78;;
63282;SDS011;49407;51.388;0.048;2022-09-20T01:11:11;7.65;;;7.25;;
63282;SDS011;49407;51.388;0.048;2022-09-20T01:13:38;8.93;;;8.32;;
63282;SDS011;49407;51.388;0.048;2022-09-20T01:16:06;7.32;;;6.93;;
63282;SDS011;49407;51.388;0.048;2022-09-20T01:18:34;8.30;;;7.90;;
63282;SDS011;49407;51.388;0.048;2022-09-20T01:21:03;7.97;;;7.53;;
63282;SDS011;49407;51.388;0.048;2022-09-20T01:23:49;8.13;;;7.65;;
63282;SDS011;49407;51.388;0.048;2022-09-20T01:31:56;7.80;;;7.40;;
63282;SDS011;49407;51.388;0.048;2022-09-20T01:34:34;8.20;;;7.70;;
63282;SDS011;49407;51.388;0.048;2022-09-20T01:39:52;7.75;;;7.35;;
63282;SDS011;49407;51.388;0.048;2022-09-20T01:42:33;7.93;;;7.45;;
63282;SDS011;49407;51.388;0.048;2022-09-20T02:02:45;3.60;;;3.50;;
63282;SDS011;49407;51.388;0.048;2022-09-20T02:05:33;7.93;;;7.53;;
63282;SDS011;49407;51.388;0.048;2022-09-20T02:08:12;3.50;;;3.40;;
63282;SDS011;49407;51.388;0.048;2022-09-20T02:11:05;3.83;;;3.72;;
63282;SDS011;49407;51.388;0.048;2022-09-20T02:16:56;8.27;;;7.78;;
63282;SDS011;49407;51.388;0.048;2022-09-20T02:22:40;8.27;;;7.78;;
63282;SDS011;49407;51.388;0.048;2022-09-20T02:25:39;8.52;;;8.02;;
63282;SDS011;49407;51.388;0.048;2022-09-20T02:31:17;8.50;;;8.00;;
63282;SDS011;49407;51.388;0.048;2022-09-20T02:47:20;8.35;;;7.88;;
63282;SDS011;49407;51.388;0.048;2022-09-20T02:55:16;8.55;;;8.05;;
63282;SDS011;49407;51.388;0.048;2022-09-20T02:57:59;9.07;;;8.48;;
63282;SDS011;49407;51.388;0.048;2022-09-20T03:00:41;9.10;;;8.60;;
63282;SDS011;49407;51.388;0.048;2022-09-20T03:27:04;9.25;;;8.75;;
63282;SDS011;49407;51.388;0.048;2022-09-20T03:29:40;9.27;;;8.68;;
63282;SDS011;49407;51.388;0.048;2022-09-20T04:09:24;9.13;;;8.52;;
63282;SDS011;49407;51.388;0.048;2022-09-20T04:11:57;10.85;;;2.92;;
63282;SDS011;49407;51.388;0.048;2022-09-20T04:14:39;3.50;;;3.30;;
63282;SDS011;49407;51.388;0.048;2022-09-20T04:19:58;9.45;;;8.95;;
63282;SDS011;49407;51.388;0.048;2022-09-20T04:22:40;9.43;;;8.93;;
63282;SDS011;49407;51.388;0.048;2022-09-20T04:25:14;9.27;;;8.77;;
63282;SDS011;49407;51.388;0.048;2022-09-20T04:27:57;9.03;;;8.50;;
63282;SDS011;49407;51.388;0.048;2022-09-20T04:30:30;3.30;;;3.15;;
63282;SDS011;49407;51.388;0.048;2022-09-20T04:37:29;4.97;;;4.63;;
63282;SDS011;49407;51.388;0.048;2022-09-20T04:56:27;3.70;;;3.60;;
63282;SDS011;49407;51.388;0.048;2022-09-20T05:05:03;9.65;;;9.05;;
63282;SDS011;49407;51.388;0.048;2022-09-20T05:20:02;4.88;;;4.68;;
63282;SDS011;49407;51.388;0.048;2022-09-20T05:26:54;5.15;;;4.95;;
63282;SDS011;49407;51.388;0.048;2022-09-20T05:37:53;5.03;;;4.75;;
63282;SDS011;49407;51.388;0.048;2022-09-20T05:46:34;5.05;;;4.85;;
63282;SDS011;49407;51.388;0.048;2022-09-20T05:52:21;4.38;;;4.28;;
63282;SDS011;49407;51.388;0.048;2022-09-20T06:17:35;5.40;;;5.20;;
63282;SDS011;49407;51.388;0.048;2022-09-20T06:20:28;5.30;;;5.07;;
63282;SDS011;49407;51.388;0.048;2022-09-20T06:23:04;5.03;;;4.82;;
63282;SDS011;49407;51.388;0.048;2022-09-20T06:28:12;5.43;;;5.22;;
63282;SDS011;49407;51.388;0.048;2022-09-20T06:30:50;5.28;;;5.07;;
63282;SDS011;49407;51.388;0.048;2022-09-20T06:36:32;5.10;;;4.90;;
63282;SDS011;49407;51.388;0.048;2022-09-20T06:39:26;6.20;;;5.90;;
63282;SDS011;49407;51.388;0.048;2022-09-20T06:42:17;6.25;;;6.00;;
63282;SDS011;49407;51.388;0.048;2022-09-20T06:44:46;5.50;;;5.30;;
63282;SDS011;49407;51.388;0.048;2022-09-20T06:47:16;5.18;;;4.85;;
63282;SDS011;49407;51.388;0.048;2022-09-20T06:49:44;5.00;;;4.80;;
63282;SDS011;49407;51.388;0.048;2022-09-20T06:52:12;5.22;;;4.85;;
63282;SDS011;49407;51.388;0.048;2022-09-20T06:54:41;11.45;;;10.73;;
63282;SDS011;49407;51.388;0.048;2022-09-20T06:57:11;11.63;;;11.02;;
63282;SDS011;49407;51.388;0.048;2022-09-20T06:59:41;5.47;;;5.18;;
63282;SDS011;49407;51.388;0.048;2022-09-20T07:02:08;12.77;;;11.98;;
63282;SDS011;49407;51.388;0.048;2022-09-20T07:04:36;4.70;;;4.50;;
63282;SDS011;49407;51.388;0.048;2022-09-20T07:07:04;5.20;;;4.88;;
63282;SDS011;49407;51.388;0.048;2022-09-20T07:09:35;5.57;;;5.07;;
63282;SDS011;49407;51.388;0.048;2022-09-20T07:12:02;11.38;;;10.65;;
63282;SDS011;49407;51.388;0.048;2022-09-20T07:17:35;3.78;;;3.65;;
63282;SDS011;49407;51.388;0.048;2022-09-20T07:20:02;12.48;;;11.65;;
63282;SDS011;49407;51.388;0.048;2022-09-20T07:22:29;13.23;;;12.27;;
63282;SDS011;49407;51.388;0.048;2022-09-20T07:24:56;12.25;;;11.27;;
63282;SDS011;49407;51.388;0.048;2022-09-20T07:27:28;12.98;;;12.07;;
63282;SDS011;49407;51.388;0.048;2022-09-20T07:29:55;3.97;;;3.78;;
63282;SDS011;49407;51.388;0.048;2022-09-20T07:32:22;13.73;;;12.43;;
63282;SDS011;49407;51.388;0.048;2022-09-20T07:34:49;13.43;;;12.52;;
63282;SDS011;49407;51.388;0.048;2022-09-20T07:37:16;12.85;;;11.73;;
63282;SDS011;49407;51.388;0.048;2022-09-20T07:39:44;13.68;;;12.68;;
63282;SDS011;49407;51.388;0.048;2022-09-20T07:42:11;12.50;;;11.70;;
63282;SDS011;49407;51.388;0.048;2022-09-20T07:44:41;12.85;;;11.95;;
63282;SDS011;49407;51.388;0.048;2022-09-20T07:47:08;13.82;;;12.60;;
63282;SDS011;49407;51.388;0.048;2022-09-20T07:49:36;13.45;;;12.35;;
63282;SDS011;49407;51.388;0.048;2022-09-20T07:52:03;12.65;;;11.85;;
63282;SDS011;49407;51.388;0.048;2022-09-20T07:54:35;13.13;;;11.80;;
63282;SDS011;49407;51.388;0.048;2022-09-20T07:57:02;13.50;;;12.40;;
63282;SDS011;49407;51.388;0.048;2022-09-20T07:59:30;12.85;;;11.60;;
63282;SDS011;49407;51.388;0.048;2022-09-20T08:01:57;11.98;;;11.05;;
63282;SDS011;49407;51.388;0.048;2022-09-20T08:08:52;13.38;;;12.07;;
63282;SDS011;49407;51.388;0.048;2022-09-20T08:11:20;12.70;;;11.70;;
63282;SDS011;49407;51.388;0.048;2022-09-20T08:16:50;12.25;;;11.38;;
63282;SDS011;49407;51.388;0.048;2022-09-20T08:19:18;13.00;;;12.00;;
63282;SDS011;49407;51.388;0.048;2022-09-20T08:21:47;13.80;;;12.70;;
63282;SDS011;49407;51.388;0.048;2022-09-20T08:27:12;11.23;;;10.43;;
63282;SDS011;49407;51.388;0.048;2022-09-20T08:29:39;13.90;;;12.73;;
63282;SDS011;49407;51.388;0.048;2022-09-20T08:32:07;12.05;;;11.27;;
63282;SDS011;49407;51.388;0.048;2022-09-20T08:38:12;13.32;;;12.43;;
63282;SDS011;49407;51.388;0.048;2022-09-20T08:41:01;13.52;;;12.48;;
63282;SDS011;49407;51.388;0.048;2022-09-20T08:46:33;13.75;;;12.73;;
63282;SDS011;49407;51.388;0.048;2022-09-20T08:49:05;12.30;;;11.60;;
63282;SDS011;49407;51.388;0.048;2022-09-20T08:51:39;11.30;;;10.60;;
63282;SDS011;49407;51.388;0.048;2022-09-20T08:57:40;13.60;;;12.90;;
63282;SDS011;49407;51.388;0.048;2022-09-20T09:00:14;13.13;;;12.32;;
63282;SDS011;49407;51.388;0.048;2022-09-20T09:06:43;13.13;;;12.32;;
63282;SDS011;49407;51.388;0.048;2022-09-20T09:09:14;11.70;;;11.02;;
63282;SDS011;49407;51.388;0.048;2022-09-20T09:11:49;10.23;;;9.73;;
63282;SDS011;49407;51.388;0.048;2022-09-20T09:17:56;9.45;;;8.98;;
63282;SDS011;49407;51.388;0.048;2022-09-20T09:20:23;8.68;;;8.27;;
63282;SDS011;49407;51.388;0.048;2022-09-20T09:23:26;8.40;;;8.10;;
63282;SDS011;49407;51.388;0.048;2022-09-20T09:25:51;8.25;;;7.82;;
63282;SDS011;49407;51.388;0.048;2022-09-20T09:28:23;8.65;;;8.25;;
63282;SDS011;49407;51.388;0.048;2022-09-20T09:30:51;9.15;;;8.75;;
63282;SDS011;49407;51.388;0.048;2022-09-20T09:37:41;8.38;;;7.80;;
63282;SDS011;49407;51.388;0.048;2022-09-20T09:40:20;8.98;;;8.57;;
63282;SDS011;49407;51.388;0.048;2022-09-20T09:45:45;6.85;;;6.55;;
63282;SDS011;49407;51.388;0.048;2022-09-20T09:48:16;7.10;;;6.80;;
63282;SDS011;49407;51.388;0.048;2022-09-20T09:50:46;6.53;;;6.22;;
63282;SDS011;49407;51.388;0.048;2022-09-20T09:53:17;7.18;;;6.88;;
63282;SDS011;49407;51.388;0.048;2022-09-20T10:01:58;6.03;;;5.72;;
63282;SDS011;49407;51.388;0.048;2022-09-20T10:04:19;6.13;;;5.68;;
63282;SDS011;49407;51.388;0.048;2022-09-20T10:07:08;5.45;;;5.25;;
63282;SDS011;49407;51.388;0.048;2022-09-20T10:09:52;5.28;;;4.97;;
63282;SDS011;49407;51.388;0.048;2022-09-20T10:19:01;5.10;;;4.70;;
63282;SDS011;49407;51.388;0.048;2022-09-20T10:36:03;3.67;;;3.47;;
63282;SDS011;49407;51.388;0.048;2022-09-20T10:38:44;3.90;;;3.70;;
63282;SDS011;49407;51.388;0.048;2022-09-20T10:57:03;2.92;;;2.83;;
63282;SDS011;49407;51.388;0.048;2022-09-20T10:59:49;2.72;;;2.60;;
63282;SDS011;49407;51.388;0.048;2022-09-20T11:02:56;2.53;;;2.42;;
63282;SDS011;49407;51.388;0.048;2022-09-20T11:05:46;2.63;;;2.53;;
63282;SDS011;49407;51.388;0.048;2022-09-20T11:08:19;2.50;;;2.40;;
63282;SDS011;49407;51.388;0.048;2022-09-20T11:10:56;2.75;;;2.55;;
63282;SDS011;49407;51.388;0.048;2022-09-20T11:17:03;2.47;;;2.38;;
63282;SDS011;49407;51.388;0.048;2022-09-20T11:19:39;2.42;;;2.33;;
63282;SDS011;49407;51.388;0.048;2022-09-20T11:22:50;2.50;;;2.40;;
63282;SDS011;49407;51.388;0.048;2022-09-20T11:25:17;2.60;;;2.47;;
63282;SDS011;49407;51.388;0.048;2022-09-20T11:33:48;2.47;;;2.38;;
63282;SDS011;49407;51.388;0.048;2022-09-20T11:36:26;2.67;;;2.58;;
63282;SDS011;49407;51.388;0.048;2022-09-20T11:39:14;2.53;;;2.42;;
63282;SDS011;49407;51.388;0.048;2022-09-20T11:41:48;2.42;;;2.30;;
63282;SDS011;49407;51.388;0.048;2022-09-20T11:47:40;2.63;;;2.53;;
63282;SDS011;49407;51.388;0.048;2022-09-20T11:58:58;2.55;;;2.40;;
63282;SDS011;49407;51.388;0.048;2022-09-20T12:07:02;3.72;;;2.55;;
63282;SDS011;49407;51.388;0.048;2022-09-20T12:09:38;2.50;;;2.30;;
63282;SDS011;49407;51.388;0.048;2022-09-20T12:12:15;2.28;;;2.17;;
63282;SDS011;49407;51.388;0.048;2022-09-20T12:15:04;2.33;;;2.22;;
63282;SDS011;49407;51.388;0.048;2022-09-20T12:26:05;2.92;;;2.83;;
63282;SDS011;49407;51.388;0.048;2022-09-20T12:28:37;4.18;;;2.90;;
63282;SDS011;49407;51.388;0.048;2022-09-20T12:36:41;2.40;;;2.30;;
63282;SDS011;49407;51.388;0.048;2022-09-20T12:39:22;2.80;;;2.70;;
63282;SDS011;49407;51.388;0.048;2022-09-20T12:41:56;2.70;;;2.60;;
63282;SDS011;49407;51.388;0.048;2022-09-20T12:47:17;2.33;;;2.22;;
63282;SDS011;49407;51.388;0.048;2022-09-20T12:49:49;2.58;;;2.47;;
63282;SDS011;49407;51.388;0.048;2022-09-20T12:57:56;2.42;;;2.33;;
63282;SDS011;49407;51.388;0.048;2022-09-20T13:00:47;2.33;;;2.22;;
63282;SDS011;49407;51.388;0.048;2022-09-20T13:08:40;2.88;;;2.67;;
63282;SDS011;49407;51.388;0.048;2022-09-20T13:11:14;2.42;;;2.33;;
63282;SDS011;49407;51.388;0.048;2022-09-20T13:19:04;2.90;;;2.70;;
63282;SDS011;49407;51.388;0.048;2022-09-20T13:21:43;2.88;;;2.67;;
63282;SDS011;49407;51.388;0.048;2022-09-20T13:24:37;2.83;;;2.70;;
63282;SDS011;49407;51.388;0.048;2022-09-20T13:27:14;2.85;;;2.75;;
63282;SDS011;49407;51.388;0.048;2022-09-20T13:29:46;2.60;;;2.38;;
63282;SDS011;49407;51.388;0.048;2022-09-20T13:40:20;3.22;;;3.13;;
63282;SDS011;49407;51.388;0.048;2022-09-20T13:43:00;3.53;;;3.33;;
63282;SDS011;49407;51.388;0.048;2022-09-20T13:45:51;3.03;;;2.83;;
63282;SDS011;49407;51.388;0.048;2022-09-20T13:48:24;3.35;;;3.15;;
63282;SDS011;49407;51.388;0.048;2022-09-20T13:50:53;2.92;;;2.83;;
63282;SDS011;49407;51.388;0.048;2022-09-20T13:53:26;3.00;;;2.85;;
63282;SDS011;49407;51.388;0.048;2022-09-20T13:56:20;3.22;;;3.03;;
63282;SDS011;49407;51.388;0.048;2022-09-20T13:58:51;3.85;;;3.65;;
63282;SDS011;49407;51.388;0.048;2022-09-20T14:01:29;3.03;;;2.90;;
63282;SDS011;49407;51.388;0.048;2022-09-20T14:04:05;2.80;;;2.60;;
63282;SDS011;49407;51.388;0.048;2022-09-20T14:06:44;3.17;;;3.00;;
63282;SDS011;49407;51.388;0.048;2022-09-20T14:09:45;3.13;;;3.03;;
63282;SDS011;49407;51.388;0.048;2022-09-20T14:12:05;2.85;;;2.75;;
63282;SDS011;49407;51.388;0.048;2022-09-20T14:14:38;3.10;;;2.90;;
63282;SDS011;49407;51.388;0.048;2022-09-20T14:17:06;2.78;;;2.67;;
63282;SDS011;49407;51.388;0.048;2022-09-20T14:19:37;3.05;;;2.85;;
63282;SDS011;49407;51.388;0.048;2022-09-20T14:22:12;3.53;;;3.33;;
63282;SDS011;49407;51.388;0.048;2022-09-20T14:27:40;3.13;;;2.92;;
63282;SDS011;49407;51.388;0.048;2022-09-20T14:30:27;3.35;;;3.17;;
63282;SDS011;49407;51.388;0.048;2022-09-20T14:33:04;3.00;;;2.90;;
63282;SDS011;49407;51.388;0.048;2022-09-20T14:35:37;3.70;;;3.50;;
63282;SDS011;49407;51.388;0.048;2022-09-20T14:38:21;3.20;;;3.10;;
63282;SDS011;49407;51.388;0.048;2022-09-20T14:40:51;3.55;;;3.40;;
63282;SDS011;49407;51.388;0.048;2022-09-20T14:46:04;2.78;;;2.60;;
63282;SDS011;49407;51.388;0.048;2022-09-20T14:48:38;3.65;;;3.35;;
63282;SDS011;49407;51.388;0.048;2022-09-20T14:53:46;2.97;;;2.80;;
63282;SDS011;49407;51.388;0.048;2022-09-20T14:56:18;3.00;;;2.90;;
63282;SDS011;49407;51.388;0.048;2022-09-20T15:01:45;3.00;;;2.80;;
63282;SDS011;49407;51.388;0.048;2022-09-20T15:04:26;2.85;;;2.65;;
63282;SDS011;49407;51.388;0.048;2022-09-20T15:06:54;3.33;;;3.08;;
63282;SDS011;49407;51.388;0.048;2022-09-20T15:09:25;2.92;;;2.83;;
63282;SDS011;49407;51.388;0.048;2022-09-20T15:14:31;3.25;;;3.03;;
63282;SDS011;49407;51.388;0.048;2022-09-20T15:17:03;3.30;;;3.10;;
63282;SDS011;49407;51.388;0.048;2022-09-20T15:19:31;2.53;;;2.42;;
63282;SDS011;49407;51.388;0.048;2022-09-20T15:22:00;3.33;;;3.13;;
63282;SDS011;49407;51.388;0.048;2022-09-20T15:24:29;3.08;;;2.78;;
63282;SDS011;49407;51.388;0.048;2022-09-20T15:26:56;2.72;;;2.60;;
63282;SDS011;49407;51.388;0.048;2022-09-20T15:29:23;2.70;;;2.60;;
63282;SDS011;49407;51.388;0.048;2022-09-20T15:31:51;4.03;;;2.90;;
63282;SDS011;49407;51.388;0.048;2022-09-20T15:34:19;3.17;;;3.08;;
63282;SDS011;49407;51.388;0.048;2022-09-20T15:36:46;3.55;;;3.25;;
63282;SDS011;49407;51.388;0.048;2022-09-20T15:39:14;3.25;;;3.05;;
63282;SDS011;49407;51.388;0.048;2022-09-20T15:41:41;2.90;;;2.80;;
63282;SDS011;49407;51.388;0.048;2022-09-20T15:44:14;2.60;;;2.50;;
63282;SDS011;49407;51.388;0.048;2022-09-20T15:46:44;3.08;;;2.88;;
63282;SDS011;49407;51.388;0.048;2022-09-20T15:49:11;2.65;;;2.53;;
63282;SDS011;49407;51.388;0.048;2022-09-20T15:51:38;3.38;;;3.17;;
63282;SDS011;49407;51.388;0.048;2022-09-20T15:54:06;2.80;;;2.63;;
63282;SDS011;49407;51.388;0.048;2022-09-20T15:56:37;3.33;;;3.03;;
63282;SDS011;49407;51.388;0.048;2022-09-20T15:59:08;3.15;;;2.95;;
63282;SDS011;49407;51.388;0.048;2022-09-20T16:01:37;3.33;;;3.13;;
63282;SDS011;49407;51.388;0.048;2022-09-20T16:04:12;3.13;;;2.92;;
63282;SDS011;49407;51.388;0.048;2022-09-20T16:06:47;3.35;;;3.20;;
63282;SDS011;49407;51.388;0.048;2022-09-20T16:09:16;2.90;;;2.80;;
63282;SDS011;49407;51.388;0.048;2022-09-20T16:11:44;3.35;;;3.05;;
63282;SDS011;49407;51.388;0.048;2022-09-20T16:17:08;3.55;;;3.35;;
63282;SDS011;49407;51.388;0.048;2022-09-20T16:19:35;3.28;;;3.17;;
63282;SDS011;49407;51.388;0.048;2022-09-20T16:22:03;4.05;;;3.00;;
63282;SDS011;49407;51.388;0.048;2022-09-20T16:24:32;3.05;;;2.92;;
63282;SDS011;49407;51.388;0.048;2022-09-20T16:27:01;4.07;;;3.08;;
63282;SDS011;49407;51.388;0.048;2022-09-20T16:29:29;3.15;;;2.95;;
63282;SDS011;49407;51.388;0.048;2022-09-20T16:31:57;3.20;;;3.00;;
63282;SDS011;49407;51.388;0.048;2022-09-20T16:34:28;3.15;;;2.97;;
63282;SDS011;49407;51.388;0.048;2022-09-20T16:37:03;3.08;;;2.88;;
63282;SDS011;49407;51.388;0.048;2022-09-20T16:39:41;3.33;;;3.13;;
63282;SDS011;49407;51.388;0.048;2022-09-20T16:42:09;3.33;;;3.13;;
63282;SDS011;49407;51.388;0.048;2022-09-20T16:44:39;3.72;;;3.53;;
63282;SDS011;49407;51.388;0.048;2022-09-20T16:47:12;3.55;;;3.25;;
63282;SDS011;49407;51.388;0.048;2022-09-20T16:49:50;3.22;;;3.00;;
63282;SDS011;49407;51.388;0.048;2022-09-20T16:52:19;3.42;;;3.22;;
63282;SDS011;49407;51.388;0.048;2022-09-20T16:54:46;3.80;;;3.60;;
63282;SDS011;49407;51.388;0.048;2022-09-20T16:57:14;3.80;;;3.60;;
63282;SDS011;49407;51.388;0.048;2022-09-20T16:59:41;3.80;;;3.60;;
63282;SDS011;49407;51.388;0.048;2022-09-20T17:02:11;3.97;;;3.65;;
63282;SDS011;49407;51.388;0.048;2022-09-20T17:04:41;3.83;;;3.55;;
63282;SDS011;49407;51.388;0.048;2022-09-20T17:07:09;4.40;;;4.00;;
63282;SDS011;49407;51.388;0.048;2022-09-20T17:09:36;3.75;;;3.55;;
63282;SDS011;49407;51.388;0.048;2022-09-20T17:12:03;4.15;;;3.85;;
63282;SDS011;49407;51.388;0.048;2022-09-20T17:14:34;5.07;;;4.43;;
63282;SDS011;49407;51.388;0.048;2022-09-20T17:17:02;4.53;;;4.13;;
63282;SDS011;49407;51.388;0.048;2022-09-20T17:19:29;4.97;;;4.68;;
63282;SDS011;49407;51.388;0.048;2022-09-20T17:21:56;4.47;;;4.18;;
63282;SDS011;49407;51.388;0.048;2022-09-20T17:24:23;4.22;;;4.03;;
63282;SDS011;49407;51.388;0.048;2022-09-20T17:26:51;4.50;;;4.20;;
63282;SDS011;49407;51.388;0.048;2022-09-20T17:29:19;4.68;;;4.40;;
63282;SDS011;49407;51.388;0.048;2022-09-20T17:31:48;4.78;;;4.38;;
63282;SDS011;49407;51.388;0.048;2022-09-20T17:37:10;4.50;;;4.30;;
63282;SDS011;49407;51.388;0.048;2022-09-20T17:39:37;5.05;;;4.75;;
63282;SDS011;49407;51.388;0.048;2022-09-20T17:42:06;4.88;;;4.47;;
63282;SDS011;49407;51.388;0.048;2022-09-20T17:44:33;5.07;;;4.78;;
63282;SDS011;49407;51.388;0.048;2022-09-20T17:47:03;5.47;;;5.18;;
63282;SDS011;49407;51.388;0.048;2022-09-20T17:49:30;4.90;;;4.35;;
63282;SDS011;49407;51.388;0.048;2022-09-20T17:51:57;5.60;;;5.13;;
63282;SDS011;49407;51.388;0.048;2022-09-20T17:57:10;5.57;;;5.18;;
63282;SDS011;49407;51.388;0.048;2022-09-20T17:59:37;5.30;;;4.90;;
63282;SDS011;49407;51.388;0.048;2022-09-20T18:02:04;5.15;;;4.85;;
63282;SDS011;49407;51.388;0.048;2022-09-20T18:04:36;5.13;;;4.85;;
63282;SDS011;49407;51.388;0.048;2022-09-20T18:07:04;5.53;;;5.22;;
63282;SDS011;49407;51.388;0.048;2022-09-20T18:09:31;5.80;;;5.45;;
63282;SDS011;49407;51.388;0.048;2022-09-20T18:11:58;5.45;;;5.10;;
63282;SDS011;49407;51.388;0.048;2022-09-20T18:14:27;5.85;;;5.53;;
63282;SDS011;49407;51.388;0.048;2022-09-20T18:17:01;5.95;;;5.65;;
63282;SDS011;49407;51.388;0.048;2022-09-20T18:19:28;5.70;;;5.35;;
63282;SDS011;49407;51.388;0.048;2022-09-20T18:22:00;6.05;;;5.75;;
63282;SDS011;49407;51.388;0.048;2022-09-20T18:24:30;6.00;;;5.70;;
63282;SDS011;49407;51.388;0.048;2022-09-20T18:26:57;6.28;;;5.97;;
63282;SDS011;49407;51.388;0.048;2022-09-20T18:29:26;6.72;;;6.32;;
63282;SDS011;49407;51.388;0.048;2022-09-20T18:31:54;6.75;;;6.45;;
63282;SDS011;49407;51.388;0.048;2022-09-20T18:34:23;6.43;;;6.10;;
63282;SDS011;49407;51.388;0.048;2022-09-20T18:36:52;6.32;;;5.93;;
63282;SDS011;49407;51.388;0.048;2022-09-20T18:39:27;6.57;;;6.18;;
63282;SDS011;49407;51.388;0.048;2022-09-20T18:42:01;6.85;;;6.50;;
63282;SDS011;49407;51.388;0.048;2022-09-20T18:44:31;6.68;;;6.32;;
63282;SDS011;49407;51.388;0.048;2022-09-20T18:46:59;7.18;;;6.78;;
63282;SDS011;49407;51.388;0.048;2022-09-20T18:49:28;7.30;;;6.82;;
63282;SDS011;49407;51.388;0.048;2022-09-20T18:51:55;7.25;;;6.85;;
63282;SDS011;49407;51.388;0.048;2022-09-20T18:58:13;8.10;;;7.60;;
63282;SDS011;49407;51.388;0.048;2022-09-20T19:03:26;7.00;;;6.40;;
63282;SDS011;49407;51.388;0.048;2022-09-20T19:06:30;7.30;;;6.80;;
63282;SDS011;49407;51.388;0.048;2022-09-20T19:09:05;7.07;;;6.70;;
63282;SDS011;49407;51.388;0.048;2022-09-20T19:11:46;7.22;;;6.88;;
63282;SDS011;49407;51.388;0.048;2022-09-20T19:17:36;8.13;;;7.63;;
63282;SDS011;49407;51.388;0.048;2022-09-20T19:27:26;7.43;;;7.03;;
63282;SDS011;49407;51.388;0.048;2022-09-20T19:29:54;7.47;;;6.97;;
63282;SDS011;49407;51.388;0.048;2022-09-20T19:32:21;6.35;;;5.95;;
63282;SDS011;49407;51.388;0.048;2022-09-20T19:34:55;6.95;;;6.45;;
63282;SDS011;49407;51.388;0.048;2022-09-20T19:37:36;6.88;;;6.57;;
63282;SDS011;49407;51.388;0.048;2022-09-20T19:40:22;7.28;;;6.88;;
63282;SDS011;49407;51.388;0.048;2022-09-20T19:49:55;6.50;;;6.18;;
63282;SDS011;49407;51.388;0.048;2022-09-20T19:52:29;6.88;;;6.47;;
63282;SDS011;49407;51.388;0.048;2022-09-20T19:54:56;7.38;;;6.97;;
63282;SDS011;49407;51.388;0.048;2022-09-20T19:57:37;7.97;;;7.57;;
63282;SDS011;49407;51.388;0.048;2022-09-20T20:00:10;7.80;;;7.38;;
63282;SDS011;49407;51.388;0.048;2022-09-20T20:02:42;7.78;;;7.38;;
63282;SDS011;49407;51.388;0.048;2022-09-20T20:05:13;7.07;;;6.68;;
63282;SDS011;49407;51.388;0.048;2022-09-20T20:07:48;7.80;;;7.30;;
63282;SDS011;49407;51.388;0.048;2022-09-20T20:10:40;7.57;;;7.07;;
63282;SDS011;49407;51.388;0.048;2022-09-20T20:19:22;7.53;;;6.88;;
63282;SDS011;49407;51.388;0.048;2022-09-20T20:27:42;6.85;;;6.55;;
63282;SDS011;49407;51.388;0.048;2022-09-20T20:30:10;6.85;;;6.45;;
63282;SDS011;49407;51.388;0.048;2022-09-20T20:32:37;7.07;;;6.55;;
63282;SDS011;49407;51.388;0.048;2022-09-20T20:35:05;6.43;;;6.03;;
63282;SDS011;49407;51.388;0.048;2022-09-20T20:37:33;6.90;;;6.50;;
63282;SDS011;49407;51.388;0.048;2022-09-20T20:40:00;7.50;;;7.10;;
63282;SDS011;49407;51.388;0.048;2022-09-20T20:42:30;8.30;;;7.65;;
63282;SDS011;49407;51.388;0.048;2022-09-20T20:44:59;7.15;;;6.75;;
63282;SDS011;49407;51.388;0.048;2022-09-20T20:47:26;7.90;;;7.40;;
63282;SDS011;49407;51.388;0.048;2022-09-20T20:49:53;7.75;;;7.35;;
63282;SDS011;49407;51.388;0.048;2022-09-20T20:52:20;7.93;;;7.43;;
63282;SDS011;49407;51.388;0.048;2022-09-20T20:54:48;7.13;;;6.72;;
63282;SDS011;49407;51.388;0.048;2022-09-20T20:57:15;8.63;;;8.07;;
63282;SDS011;49407;51.388;0.048;2022-09-20T20:59:44;7.85;;;7.35;;
63282;SDS011;49407;51.388;0.048;2022-09-20T21:02:11;8.93;;;8.32;;
63282;SDS011;49407;51.388;0.048;2022-09-20T21:07:35;9.23;;;8.40;;
63282;SDS011;49407;51.388;0.048;2022-09-20T21:10:02;9.05;;;8.45;;
63282;SDS011;49407;51.388;0.048;2022-09-20T21:12:30;8.38;;;7.80;;
63282;SDS011;49407;51.388;0.048;2022-09-20T21:14:56;7.88;;;7.35;;
63282;SDS011;49407;51.388;0.048;2022-09-20T21:17:23;8.52;;;7.93;;
63282;SDS011;49407;51.388;0.048;2022-09-20T21:19:51;8.18;;;7.68;;
63282;SDS011;49407;51.388;0.048;2022-09-20T21:22:19;8.00;;;7.50;;
63282;SDS011;49407;51.388;0.048;2022-09-20T21:24:49;8.55;;;8.05;;
63282;SDS011;49407;51.388;0.048;2022-09-20T21:27:16;9.10;;;8.50;;
63282;SDS011;49407;51.388;0.048;2022-09-20T21:29:43;9.77;;;8.88;;
63282;SDS011;49407;51.388;0.048;2022-09-20T21:32:10;9.07;;;8.32;;
63282;SDS011;49407;51.388;0.048;2022-09-20T21:37:35;9.15;;;8.45;;
63282;SDS011;49407;51.388;0.048;2022-09-20T21:40:02;10.05;;;9.25;;
63282;SDS011;49407;51.388;0.048;2022-09-20T21:42:29;8.10;;;7.60;;
63282;SDS011;49407;51.388;0.048;2022-09-20T21:44:56;8.93;;;8.23;;
63282;SDS011;49407;51.388;0.048;2022-09-20T21:47:23;7.70;;;7.20;;
63282;SDS011;49407;51.388;0.048;2022-09-20T21:49:50;8.73;;;7.90;;
63282;SDS011;49407;51.388;0.048;2022-09-20T21:52:17;9.00;;;8.20;;
63282;SDS011;49407;51.388;0.048;2022-09-20T21:57:43;8.55;;;8.05;;
63282;SDS011;49407;51.388;0.048;2022-09-20T22:00:10;8.85;;;8.07;;
63282;SDS011;49407;51.388;0.048;2022-09-20T22:05:42;9.35;;;8.43;;
63282;SDS011;49407;51.388;0.048;2022-09-20T22:08:09;9.27;;;8.52;;
63282;SDS011;49407;51.388;0.048;2022-09-20T22:10:36;9.02;;;8.40;;
63282;SDS011;49407;51.388;0.048;2022-09-20T22:15:50;8.75;;;8.15;;
63282;SDS011;49407;51.388;0.048;2022-09-20T22:18:17;9.70;;;8.88;;
63282;SDS011;49407;51.388;0.048;2022-09-20T22:20:44;8.57;;;7.97;;
63282;SDS011;49407;51.388;0.048;2022-09-20T22:23:13;9.63;;;8.82;;
63282;SDS011;49407;51.388;0.048;2022-09-20T22:25:41;8.88;;;8.15;;
63282;SDS011;49407;51.388;0.048;2022-09-20T22:28:08;9.32;;;8.43;;
63282;SDS011;49407;51.388;0.048;2022-09-20T22:30:35;9.52;;;8.82;;
63282;SDS011;49407;51.388;0.048;2022-09-20T22:33:04;9.93;;;9.18;;
63282;SDS011;49407;51.388;0.048;2022-09-20T22:35:31;10.50;;;9.48;;
63282;SDS011;49407;51.388;0.048;2022-09-20T22:37:58;10.75;;;9.75;;
63282;SDS011;49407;51.388;0.048;2022-09-20T22:40:25;10.80;;;9.60;;